TimeEDT,TemperatureF,Dew PointF,Humidity,Sea Level PressureIn,VisibilityMPH,Wind Direction,Wind SpeedMPH,Gust SpeedMPH,PrecipitationIn,Events,Conditions,WindDirDegrees,DateUTC
12:51 AM,30.9,28.9,92,29.81,9.0,NW,5.8,-,0.00,Snow,Light Snow,320,2013-03-26 04:51:00
1:51 AM,30.9,28.9,92,29.83,10.0,NW,5.8,-,0.00,,Overcast,310,2013-03-26 05:51:00
2:51 AM,30.9,28.9,92,29.84,9.0,NW,6.9,-,0.00,Snow,Light Snow,310,2013-03-26 06:51:00
3:51 AM,30.9,28.0,89,29.84,9.0,WNW,3.5,-,0.00,Snow,Light Snow,290,2013-03-26 07:51:00
4:51 AM,30.9,28.0,89,29.85,9.0,West,3.5,-,0.00,Snow,Light Snow,270,2013-03-26 08:51:00
5:51 AM,30.9,28.0,89,29.86,10.0,WNW,4.6,-,0.00,,Overcast,290,2013-03-26 09:51:00
6:51 AM,30.9,28.0,89,29.89,10.0,WNW,5.8,-,N/A,,Overcast,290,2013-03-26 10:51:00
7:02 AM,30.2,28.4,93,29.86,10.0,WNW,4.6,-,0.00,Snow,Light Snow,300,2013-03-26 11:02:00
7:42 AM,30.2,28.4,93,29.87,9.0,West,5.8,-,0.00,Snow,Light Snow,280,2013-03-26 11:42:00
7:51 AM,30.2,28.4,93,29.91,9.0,West,6.9,-,N/A,,Overcast,270,2013-03-26 11:51:00
8:51 AM,32.0,30.0,92,29.93,8.0,West,9.2,-,N/A,,Overcast,280,2013-03-26 12:51:00
9:03 AM,32.0,30.2,93,29.90,8.0,West,9.2,-,N/A,,Overcast,270,2013-03-26 13:03:00
9:51 AM,33.1,30.0,89,29.94,10.0,West,6.9,-,N/A,,Overcast,280,2013-03-26 13:51:00
10:51 AM,35.1,30.9,85,29.96,10.0,WNW,5.8,-,N/A,,Overcast,290,2013-03-26 14:51:00
11:07 AM,35.6,30.2,81,29.93,10.0,NW,10.4,-,N/A,,Overcast,310,2013-03-26 15:07:00
11:51 AM,37.0,30.0,76,29.97,10.0,NW,10.4,-,N/A,,Overcast,310,2013-03-26 15:51:00
12:07 PM,37.4,30.2,75,29.94,10.0,WNW,10.4,-,N/A,,Overcast,300,2013-03-26 16:07:00
12:51 PM,37.0,30.0,76,29.98,10.0,WNW,11.5,-,N/A,,Overcast,290,2013-03-26 16:51:00
1:51 PM,37.9,30.0,73,29.98,10.0,NW,15.0,21.9,N/A,,Overcast,310,2013-03-26 17:51:00
2:51 PM,37.0,30.0,76,29.99,10.0,WNW,12.7,-,N/A,,Overcast,290,2013-03-26 18:51:00
3:51 PM,37.0,28.9,73,30.00,10.0,NW,13.8,18.4,N/A,,Overcast,320,2013-03-26 19:51:00
4:51 PM,37.0,30.9,79,30.01,10.0,WNW,8.1,-,0.00,Rain-Snow,Light Rain,300,2013-03-26 20:51:00
5:51 PM,37.0,30.0,76,30.01,10.0,WNW,12.7,19.6,0.00,,Overcast,300,2013-03-26 21:51:00
6:51 PM,36.0,30.0,79,30.02,10.0,NW,9.2,-,N/A,,Mostly Cloudy,310,2013-03-26 22:51:00
7:21 PM,35.6,28.4,75,30.00,10.0,NW,10.4,-,N/A,,Mostly Cloudy,310,2013-03-26 23:21:00
7:51 PM,36.0,28.9,76,30.04,10.0,NW,8.1,-,N/A,,Overcast,310,2013-03-26 23:51:00
8:51 PM,34.0,30.0,85,30.07,6.0,NW,11.5,-,0.00,Snow,Light Snow,310,2013-03-27 00:51:00
9:16 PM,33.8,28.4,81,30.04,4.0,WNW,16.1,23.0,0.00,Snow,Light Snow,300,2013-03-27 01:16:00
9:30 PM,33.8,30.2,87,30.04,1.5,WNW,9.2,-,0.00,Snow,Light Snow,300,2013-03-27 01:30:00
9:40 PM,33.8,30.2,87,30.04,1.5,WNW,8.1,-,0.01,Snow,Light Snow,300,2013-03-27 01:40:00
9:51 PM,33.1,30.9,92,30.08,1.0,WNW,5.8,-,0.01,Snow,Light Snow,290,2013-03-27 01:51:00
10:02 PM,33.8,30.2,87,30.05,0.8,WNW,8.1,-,0.01,Snow,Light Snow,290,2013-03-27 02:02:00
10:32 PM,32.0,30.2,93,30.05,2.5,West,6.9,-,0.02,Snow,Light Snow,280,2013-03-27 02:32:00
10:51 PM,32.0,30.9,96,30.08,2.0,West,9.2,-,N/A,Snow,Light Snow,270,2013-03-27 02:51:00
11:18 PM,32.0,30.2,93,30.05,2.0,West,6.9,-,0.01,Snow,Light Snow,270,2013-03-27 03:18:00
11:41 PM,32.0,30.2,93,30.05,3.0,West,8.1,-,0.01,Snow,Light Snow,280,2013-03-27 03:41:00
11:51 PM,32.0,30.9,96,30.09,3.0,West,6.9,-,0.01,Snow,Light Snow,280,2013-03-27 03:51:00